Time;durP1;ratioP1;P1;durP2;ratioP2;P2;SDS_P1;SDS_P2;PMS_P1;PMS_P2;Temp;Humidity;BMP_temperature;BMP_pressure;BME280_temperature;BME280_humidity;BME280_pressure;Samples;Min_cycle;Max_cycle;Signal;HPM_P1;HPM_P2
2021/11/16 00:01:28;;;;;;;25.8;12.3;;;;;;;;;;;;;
2021/11/16 00:03:56;;;;;;;21.4;10.4;;;;;;;;;;;;;
2021/11/16 00:06:22;;;;;;;23.1;9.4;;;;;;;;;;;;;
2021/11/16 00:08:47;;;;;;;19.5;8.1;;;;;;;;;;;;;
2021/11/16 00:11:14;;;;;;;14.1;7.7;;;;;;;;;;;;;
2021/11/16 00:13:39;;;;;;;12.7;7.2;;;;;;;;;;;;;
2021/11/16 00:16:08;;;;;;;15.1;7;;;;;;;;;;;;;
2021/11/16 00:18:33;;;;;;;12.6;7.2;;;;;;;;;;;;;
2021/11/16 00:20:58;;;;;;;10.6;6.7;;;;;;;;;;;;;
2021/11/16 00:23:24;;;;;;;13.6;7.1;;;;;;;;;;;;;
2021/11/16 00:25:51;;;;;;;11.4;6.6;;;;;;;;;;;;;
2021/11/16 00:28:15;;;;;;;14.3;7;;;;;;;;;;;;;
2021/11/16 00:30:40;;;;;;;13.5;6.6;;;;;;;;;;;;;
2021/11/16 00:33:06;;;;;;;14.7;7.2;;;;;;;;;;;;;
2021/11/16 00:35:31;;;;;;;20.2;7.4;;;;;;;;;;;;;
2021/11/16 00:37:56;;;;;;;14.8;7.3;;;;;;;;;;;;;
2021/11/16 00:40:21;;;;;;;17.5;7.5;;;;;;;;;;;;;
2021/11/16 00:42:46;;;;;;;21.9;9.5;;;;;;;;;;;;;
2021/11/16 00:45:15;;;;;;;51.7;14.2;;;;;;;;;;;;;
2021/11/16 00:47:40;;;;;;;43.4;14.3;;;;;;;;;;;;;
2021/11/16 00:50:05;;;;;;;57.6;12.8;;;;;;;;;;;;;
2021/11/16 00:52:30;;;;;;;30.3;12;;;;;;;;;;;;;
2021/11/16 00:54:55;;;;;;;35.5;12.6;;;;;;;;;;;;;
2021/11/16 00:57:20;;;;;;;32.2;11.7;;;;;;;;;;;;;
2021/11/16 00:59:46;;;;;;;32;12;;;;;;;;;;;;;
2021/11/16 01:02:11;;;;;;;38.8;12.9;;;;;;;;;;;;;
2021/11/16 01:04:39;;;;;;;31.3;11.7;;;;;;;;;;;;;
2021/11/16 01:07:05;;;;;;;39.6;13.1;;;;;;;;;;;;;
2021/11/16 01:09:29;;;;;;;31.6;10.8;;;;;;;;;;;;;
2021/11/16 01:11:54;;;;;;;31.5;11.8;;;;;;;;;;;;;
2021/11/16 01:14:21;;;;;;;37.7;12.4;;;;;;;;;;;;;
2021/11/16 01:16:46;;;;;;;29.9;11.3;;;;;;;;;;;;;
2021/11/16 01:19:13;;;;;;;31.3;11;;;;;;;;;;;;;
2021/11/16 01:21:38;;;;;;;24.8;10.9;;;;;;;;;;;;;
2021/11/16 01:24:04;;;;;;;28.2;10.3;;;;;;;;;;;;;
2021/11/16 01:26:29;;;;;;;33.2;11.6;;;;;;;;;;;;;
2021/11/16 01:29:00;;;;;;;27.2;11.5;;;;;;;;;;;;;
2021/11/16 01:31:29;;;;;;;30.4;10.6;;;;;;;;;;;;;
2021/11/16 01:33:55;;;;;;;29.6;11.3;;;;;;;;;;;;;
2021/11/16 01:36:18;;;;;;;26.7;10.7;;;;;;;;;;;;;
2021/11/16 01:38:43;;;;;;;24;10.4;;;;;;;;;;;;;
2021/11/16 01:41:09;;;;;;;33.7;10.5;;;;;;;;;;;;;
2021/11/16 01:43:34;;;;;;;19.3;8.8;;;;;;;;;;;;;
2021/11/16 01:45:59;;;;;;;25.8;9.8;;;;;;;;;;;;;
2021/11/16 01:48:26;;;;;;;34.3;12.6;;;;;;;;;;;;;
2021/11/16 01:50:51;;;;;;;30.2;12;;;;;;;;;;;;;
2021/11/16 01:53:17;;;;;;;31.6;12;;;;;;;;;;;;;
2021/11/16 01:55:47;;;;;;;27.5;10.8;;;;;;;;;;;;;
2021/11/16 01:58:12;;;;;;;35.1;11.6;;;;;;;;;;;;;
2021/11/16 02:00:37;;;;;;;37.8;11.7;;;;;;;;;;;;;
2021/11/16 02:03:04;;;;;;;22.2;10.3;;;;;;;;;;;;;
2021/11/16 02:05:29;;;;;;;19.7;9.2;;;;;;;;;;;;;
2021/11/16 02:07:55;;;;;;;17;9;;;;;;;;;;;;;
2021/11/16 02:10:21;;;;;;;18.5;8.9;;;;;;;;;;;;;
2021/11/16 02:12:48;;;;;;;19.8;8.7;;;;;;;;;;;;;
2021/11/16 02:15:14;;;;;;;16.7;8.7;;;;;;;;;;;;;
2021/11/16 02:17:38;;;;;;;18.2;8.8;;;;;;;;;;;;;
2021/11/16 02:20:06;;;;;;;17.4;9.1;;;;;;;;;;;;;
2021/11/16 02:22:31;;;;;;;15.6;7.9;;;;;;;;;;;;;
2021/11/16 02:24:59;;;;;;;14.4;8.2;;;;;;;;;;;;;
2021/11/16 02:27:24;;;;;;;14.1;7.9;;;;;;;;;;;;;
2021/11/16 02:29:50;;;;;;;15.7;8.2;;;;;;;;;;;;;
2021/11/16 02:32:15;;;;;;;17.3;8.2;;;;;;;;;;;;;
2021/11/16 02:34:40;;;;;;;16.7;8.4;;;;;;;;;;;;;
2021/11/16 02:37:05;;;;;;;17.4;9.4;;;;;;;;;;;;;
2021/11/16 02:39:31;;;;;;;24;9.3;;;;;;;;;;;;;
2021/11/16 02:41:56;;;;;;;22.5;10.2;;;;;;;;;;;;;
2021/11/16 02:44:23;;;;;;;25.9;10.3;;;;;;;;;;;;;
2021/11/16 02:46:47;;;;;;;19.5;9.1;;;;;;;;;;;;;
2021/11/16 02:49:12;;;;;;;21.2;9.3;;;;;;;;;;;;;
2021/11/16 02:51:39;;;;;;;20.4;9.7;;;;;;;;;;;;;
2021/11/16 02:54:04;;;;;;;20;9.2;;;;;;;;;;;;;
2021/11/16 02:56:30;;;;;;;13;8;;;;;;;;;;;;;
2021/11/16 02:58:56;;;;;;;18.8;9.5;;;;;;;;;;;;;
2021/11/16 03:01:24;;;;;;;21;9.7;;;;;;;;;;;;;
2021/11/16 03:03:49;;;;;;;18.3;9.2;;;;;;;;;;;;;
2021/11/16 03:06:14;;;;;;;18.8;9.5;;;;;;;;;;;;;
2021/11/16 03:08:40;;;;;;;14.3;7.9;;;;;;;;;;;;;
2021/11/16 03:11:07;;;;;;;14.9;8.3;;;;;;;;;;;;;
2021/11/16 03:13:36;;;;;;;15.2;8.4;;;;;;;;;;;;;
2021/11/16 03:15:59;;;;;;;19.7;9.7;;;;;;;;;;;;;
2021/11/16 03:18:26;;;;;;;17.3;9.3;;;;;;;;;;;;;
2021/11/16 03:20:51;;;;;;;15.8;8.7;;;;;;;;;;;;;
2021/11/16 03:23:18;;;;;;;16.1;9.3;;;;;;;;;;;;;
2021/11/16 03:25:46;;;;;;;16.5;9.2;;;;;;;;;;;;;
2021/11/16 03:28:09;;;;;;;13;8.5;;;;;;;;;;;;;
2021/11/16 03:30:33;;;;;;;14.4;8.5;;;;;;;;;;;;;
2021/11/16 03:32:58;;;;;;;13.8;8.1;;;;;;;;;;;;;
2021/11/16 03:35:23;;;;;;;13;7.3;;;;;;;;;;;;;
2021/11/16 03:37:54;;;;;;;13.7;8.4;;;;;;;;;;;;;
2021/11/16 03:40:15;;;;;;;12.1;7.4;;;;;;;;;;;;;
2021/11/16 03:42:41;;;;;;;11.4;6.7;;;;;;;;;;;;;
2021/11/16 03:45:06;;;;;;;10.2;7.1;;;;;;;;;;;;;
2021/11/16 03:47:31;;;;;;;11.5;7.3;;;;;;;;;;;;;
2021/11/16 03:49:56;;;;;;;10.3;6.8;;;;;;;;;;;;;
2021/11/16 03:52:23;;;;;;;10.6;7.1;;;;;;;;;;;;;
2021/11/16 03:54:47;;;;;;;9.1;6.6;;;;;;;;;;;;;
2021/11/16 03:57:12;;;;;;;10.4;6.9;;;;;;;;;;;;;
2021/11/16 03:59:37;;;;;;;10.7;6.8;;;;;;;;;;;;;
2021/11/16 04:02:31;;;;;;;9.5;6.3;;;;;;;5.63;96.16309;940.5005;;;;
2021/11/16 04:04:56;;;;;;;8.4;5.9;;;;;;;5.63;96.16309;940.5519;;;;
2021/11/16 04:07:26;;;;;;;10.2;6.4;;;;;;;5.56;96.09082;940.6283;;;;
2021/11/16 04:09:57;;;;;;;10.1;6.3;;;;;;;5.58;95.93848;940.6481;;;;
2021/11/16 04:12:22;;;;;;;9.2;6.2;;;;;;;5.66;95.80859;940.601;;;;
2021/11/16 04:14:47;;;;;;;8.6;6.3;;;;;;;5.46;95.87891;940.6308;;;;
2021/11/16 04:17:27;;;;;;;9.9;6;;;;;;;5.5;96.42871;940.6186;;;;
2021/11/16 04:19:57;;;;;;;9.8;6.4;;;;;;;5.57;96.05859;940.5947;;;;
2021/11/16 04:22:36;;;;;;;9.1;6.5;;;;;;;5.47;95.7998;940.6674;;;;
2021/11/16 04:25:02;;;;;;;9;6;;;;;;;5.47;96.31836;940.649;;;;
2021/11/16 04:27:28;;;;;;;7.6;6.2;;;;;;;5.43;96.35352;940.6124;;;;
2021/11/16 04:29:59;;;;;;;9;6.1;;;;;;;5.42;96.54297;940.6498;;;;
2021/11/16 04:32:25;;;;;;;9.3;6;;;;;;;5.48;96.26465;940.6772;;;;
2021/11/16 04:34:58;;;;;;;9.1;5.8;;;;;;;5.4;96.16699;940.6638;;;;
2021/11/16 04:37:28;;;;;;;7.4;5.3;;;;;;;5.3;96.44043;940.7399;;;;
2021/11/16 04:39:59;;;;;;;8.5;5.8;;;;;;;5.37;96.38672;940.7673;;;;
2021/11/16 04:42:25;;;;;;;10;6.4;;;;;;;5.4;96.33594;940.7721;;;;
2021/11/16 04:44:49;;;;;;;8.4;5.7;;;;;;;5.46;96.01367;940.7714;;;;
2021/11/16 04:50:23;;;;;;;9.3;5.9;;;;;;;5.39;95.97363;940.7838;;;;
2021/11/16 04:52:48;;;;;;;9.5;5.8;;;;;;;5.37;96.24023;940.7381;;;;
2021/11/16 04:55:26;;;;;;;10.6;6.9;;;;;;;5.42;96.39844;940.7022;;;;
2021/11/16 05:02:33;;;;;;;8.3;5.9;;;;;;;5.37;95.49512;940.675;;;;
2021/11/16 05:02:39;;;;;;;6.9;5.3;;;;;;;5.28;95.81348;940.6624;;;;
2021/11/16 05:04:47;;;;;;;8.6;5.6;;;;;;;5.25;96.41602;940.6401;;;;
2021/11/16 05:07:14;;;;;;;7.8;5.4;;;;;;;5.29;96.23242;940.6683;;;;
2021/11/16 05:09:37;;;;;;;8;6;;;;;;;5.24;96.78418;940.6121;;;;
2021/11/16 05:12:07;;;;;;;9.4;6.4;;;;;;;5.28;96.83984;940.5858;;;;
2021/11/16 05:14:32;;;;;;;7.8;5.4;;;;;;;5.16;96.84668;940.6399;;;;
2021/11/16 05:16:58;;;;;;;7.1;5.3;;;;;;;5.18;96.71582;940.6611;;;;
2021/11/16 05:19:30;;;;;;;8.8;5.8;;;;;;;5.25;96.96875;940.6353;;;;
2021/11/16 05:21:55;;;;;;;8.6;5.8;;;;;;;5.17;97.04102;940.5779;;;;
2021/11/16 05:24:24;;;;;;;7.1;5.7;;;;;;;5.15;97.22656;940.5212;;;;
2021/11/16 05:26:47;;;;;;;6.4;4.7;;;;;;;4.91;97.83789;940.5814;;;;
2021/11/16 05:29:16;;;;;;;6.9;4.9;;;;;;;5.1;97.53223;940.5267;;;;
2021/11/16 05:31:41;;;;;;;8.6;5.9;;;;;;;5.12;97.13184;940.5906;;;;
2021/11/16 05:34:08;;;;;;;10.5;6;;;;;;;5.08;97.17773;940.5845;;;;
2021/11/16 05:36:33;;;;;;;7.1;5.2;;;;;;;5.14;97.19043;940.5966;;;;
2021/11/16 05:39:02;;;;;;;7.4;5.3;;;;;;;5.28;96.95508;940.5504;;;;
2021/11/16 05:41:27;;;;;;;7.6;5.6;;;;;;;5.36;96.24902;940.6002;;;;
2021/11/16 05:43:54;;;;;;;6.7;5;;;;;;;5.38;95.62109;940.6057;;;;
2021/11/16 05:46:20;;;;;;;8.6;5.4;;;;;;;5.27;96.42969;940.6021;;;;
2021/11/16 05:48:47;;;;;;;8.8;5.9;;;;;;;5.24;96.70605;940.6145;;;;
2021/11/16 05:51:12;;;;;;;7.8;5.2;;;;;;;5.22;96.7373;940.6708;;;;
2021/11/16 05:53:41;;;;;;;8.3;5.6;;;;;;;5.14;96.79785;940.6292;;;;
2021/11/16 05:56:04;;;;;;;8.1;5.1;;;;;;;5.04;97.29199;940.617;;;;
2021/11/16 05:58:31;;;;;;;7.9;5.3;;;;;;;5.08;97.41504;940.627;;;;
2021/11/16 06:00:56;;;;;;;7.6;5.3;;;;;;;5.11;97.28809;940.6108;;;;
2021/11/16 06:03:22;;;;;;;8.6;5.7;;;;;;;5.19;97.25879;940.603;;;;
2021/11/16 06:05:47;;;;;;;7.5;5.5;;;;;;;5.22;96.39941;940.6336;;;;
2021/11/16 06:08:12;;;;;;;7;4.4;;;;;;;5.11;96.46289;940.6524;;;;
2021/11/16 06:10:41;;;;;;;6;4.6;;;;;;;5.14;96.55859;940.6275;;;;
2021/11/16 06:13:06;;;;;;;6;4.6;;;;;;;5.23;96.59082;940.6481;;;;
2021/11/16 06:15:40;;;;;;;6;4.5;;;;;;;5.14;96.01953;940.6852;;;;
2021/11/16 06:18:10;;;;;;;8.5;4.9;;;;;;;4.99;96.89844;940.5938;;;;
2021/11/16 06:20:40;;;;;;;4.8;4.3;;;;;;;5.02;96.94922;940.6006;;;;
2021/11/16 06:23:05;;;;;;;5.6;4.5;;;;;;;5.06;97.20801;940.6241;;;;
2021/11/16 06:25:34;;;;;;;6.8;4.5;;;;;;;5.12;97.00586;940.5265;;;;
2021/11/16 06:27:59;;;;;;;5.7;4.3;;;;;;;5.14;96.80664;940.5991;;;;
2021/11/16 06:30:28;;;;;;;5.6;4.5;;;;;;;4.92;97.08496;940.6189;;;;
2021/11/16 06:32:53;;;;;;;5.1;4.4;;;;;;;4.97;97.60254;940.6214;;;;
2021/11/16 06:35:22;;;;;;;5.3;4.1;;;;;;;4.96;97.11719;940.6259;;;;
2021/11/16 06:37:50;;;;;;;4.7;4;;;;;;;5.14;96.45801;940.6606;;;;
2021/11/16 06:40:15;;;;;;;5.3;4.3;;;;;;;4.98;96.64844;940.6848;;;;
2021/11/16 06:42:45;;;;;;;5.3;3.9;;;;;;;5.01;96.37305;940.6785;;;;
2021/11/16 06:45:13;;;;;;;6;3.8;;;;;;;4.95;96.05371;940.7106;;;;
2021/11/16 06:47:38;;;;;;;4;3.4;;;;;;;4.89;96.37988;940.6069;;;;
2021/11/16 06:50:04;;;;;;;4.4;3.7;;;;;;;4.77;96.29688;940.6663;;;;
2021/11/16 06:52:36;;;;;;;4.6;3.2;;;;;;;4.91;96.60938;940.6461;;;;
2021/11/16 06:54:59;;;;;;;4.3;3.5;;;;;;;4.92;96.29785;940.7059;;;;
2021/11/16 06:57:27;;;;;;;4.8;3.9;;;;;;;4.97;96.36426;940.6641;;;;
2021/11/16 06:59:50;;;;;;;4.4;3.6;;;;;;;4.92;96.75781;940.6426;;;;
2021/11/16 07:02:18;;;;;;;5.9;3.8;;;;;;;4.99;96.3125;940.6964;;;;
2021/11/16 07:04:44;;;;;;;4.6;3.6;;;;;;;5;96.01172;940.7261;;;;
2021/11/16 07:07:09;;;;;;;4.2;3.5;;;;;;;4.97;95.71094;940.7241;;;;
2021/11/16 07:09:35;;;;;;;4.2;3.6;;;;;;;4.95;95.52441;940.7927;;;;
2021/11/16 07:11:59;;;;;;;3.7;3.3;;;;;;;4.87;95.83496;940.7878;;;;
2021/11/16 07:14:26;;;;;;;4.4;3.7;;;;;;;4.88;95.81445;940.8206;;;;
2021/11/16 07:16:50;;;;;;;4.7;3.7;;;;;;;4.95;95.99805;940.818;;;;
2021/11/16 07:19:19;;;;;;;5.7;3.8;;;;;;;4.88;95.72461;940.808;;;;
2021/11/16 07:21:44;;;;;;;4.4;3.5;;;;;;;4.96;96.92383;940.8198;;;;
2021/11/16 07:24:11;;;;;;;4.5;3.6;;;;;;;4.92;96.69238;940.705;;;;
2021/11/16 07:26:39;;;;;;;3.4;3;;;;;;;4.87;95.83496;940.7642;;;;
2021/11/16 07:29:00;;;;;;;3.5;3.2;;;;;;;5.05;94.39844;940.821;;;;
2021/11/16 07:31:27;;;;;;;4.1;3.1;;;;;;;5.14;94.13477;940.7687;;;;
2021/11/16 07:34:44;;;;;;;3.3;3;;;;;;;5.13;94.24805;940.7647;;;;
2021/11/16 07:37:09;;;;;;;3.7;3.2;;;;;;;5.12;94.00684;940.873;;;;
2021/11/16 07:39:34;;;;;;;4.7;3.6;;;;;;;5.26;94.0498;940.777;;;;
2021/11/16 07:41:59;;;;;;;4.5;3.3;;;;;;;5.29;93.93164;940.834;;;;
2021/11/16 07:44:24;;;;;;;4.5;3.4;;;;;;;5.41;93.50879;940.8589;;;;
2021/11/16 07:46:49;;;;;;;3.2;2.9;;;;;;;5.38;91.99121;940.9216;;;;
2021/11/16 07:49:15;;;;;;;4.1;3.1;;;;;;;5.4;92.45508;940.8281;;;;
2021/11/16 07:51:40;;;;;;;3.6;3.2;;;;;;;5.52;92.95703;940.8752;;;;
2021/11/16 07:54:05;;;;;;;4;3.4;;;;;;;5.49;92.04785;940.8766;;;;
2021/11/16 07:56:30;;;;;;;5;3.7;;;;;;;5.4;91.50977;940.9492;;;;
2021/11/16 07:58:57;;;;;;;4.2;3.1;;;;;;;5.3;93.22363;940.9434;;;;
2021/11/16 08:01:26;;;;;;;3.5;3;;;;;;;5.43;92.49902;940.8967;;;;
2021/11/16 08:03:53;;;;;;;4.3;3.1;;;;;;;5.49;91.92383;940.9066;;;;
2021/11/16 08:06:17;;;;;;;4.3;3.8;;;;;;;5.38;91.90039;940.9327;;;;
2021/11/16 08:08:51;;;;;;;4.9;3.3;;;;;;;5.41;92.24316;940.933;;;;
2021/11/16 08:11:05;;;;;;;4;3.2;;;;;;;5.41;91.76855;940.914;;;;
2021/11/16 08:13:30;;;;;;;5.5;4;;;;;;;5.49;92.2832;940.8986;;;;
2021/11/16 08:15:57;;;;;;;5.5;4.6;;;;;;;5.66;92.4668;940.9036;;;;
2021/11/16 08:18:22;;;;;;;6.3;4.5;;;;;;;5.29;91.67578;940.9155;;;;
2021/11/16 08:20:54;;;;;;;6.1;4.6;;;;;;;5.36;92.93262;940.8767;;;;
2021/11/16 08:23:21;;;;;;;4.5;3.8;;;;;;;5.36;93.06836;940.9138;;;;
2021/11/16 08:25:49;;;;;;;4.9;4.2;;;;;;;5.43;92.81055;940.9099;;;;
2021/11/16 08:28:14;;;;;;;10.1;8;;;;;;;5.49;92.66699;940.9469;;;;
2021/11/16 08:30:40;;;;;;;4.7;4;;;;;;;5.35;92.8291;940.9283;;;;
2021/11/16 08:33:08;;;;;;;5;3.6;;;;;;;5.52;92.42578;940.9036;;;;
2021/11/16 08:35:33;;;;;;;4.5;3.7;;;;;;;5.62;91.95117;940.877;;;;
2021/11/16 08:38:04;;;;;;;4.3;3.5;;;;;;;5.78;90.92285;940.8844;;;;
2021/11/16 08:40:27;;;;;;;4.7;4;;;;;;;5.84;89.65039;940.8101;;;;
2021/11/16 08:42:54;;;;;;;4.4;4;;;;;;;5.75;90.49902;940.7744;;;;
2021/11/16 08:45:23;;;;;;;4.2;3.5;;;;;;;5.63;91.32031;940.7698;;;;
2021/11/16 08:47:45;;;;;;;4.4;3.8;;;;;;;5.69;91.28906;940.7623;;;;
2021/11/16 08:50:15;;;;;;;4.5;3.8;;;;;;;5.88;90.60645;940.7756;;;;
2021/11/16 08:52:40;;;;;;;4.9;3.9;;;;;;;6.14;89.95996;940.7104;;;;
2021/11/16 08:55:18;;;;;;;4.4;3.6;;;;;;;6.11;89.0498;940.7586;;;;
2021/11/16 08:57:44;;;;;;;4.9;3.9;;;;;;;5.9;89.67285;940.7481;;;;
2021/11/16 09:00:14;;;;;;;5;4.1;;;;;;;5.85;90.52051;940.7274;;;;
2021/11/16 09:05:33;;;;;;;4.2;3.8;;;;;;;5.78;90.16602;940.7391;;;;
2021/11/16 09:08:02;;;;;;;4.1;3.4;;;;;;;6;89.91992;940.7922;;;;
2021/11/16 09:10:26;;;;;;;4.8;3.6;;;;;;;6.29;89.25488;940.7531;;;;
2021/11/16 09:12:54;;;;;;;4.7;3.9;;;;;;;6.5;87.72852;940.7556;;;;
2021/11/16 09:15:25;;;;;;;4.7;3.7;;;;;;;6.48;87.2041;940.8002;;;;
2021/11/16 09:17:50;;;;;;;4.7;3.9;;;;;;;6.2;87.48633;940.7747;;;;
2021/11/16 09:20:15;;;;;;;4.4;3.6;;;;;;;6.24;88.04785;940.8562;;;;
2021/11/16 09:22:43;;;;;;;4.6;4;;;;;;;6.31;88.12988;940.8766;;;;
2021/11/16 09:25:09;;;;;;;4.1;3.4;;;;;;;6.2;89.08008;940.8563;;;;
2021/11/16 09:27:40;;;;;;;4.6;3.6;;;;;;;6.13;89.53906;940.9017;;;;
2021/11/16 09:29:59;;;;;;;4.1;3.3;;;;;;;6.31;89.10254;940.9958;;;;
2021/11/16 09:32:28;;;;;;;4.3;3.5;;;;;;;6.15;89.11426;940.9377;;;;
2021/11/16 09:34:51;;;;;;;6.1;3.9;;;;;;;6.15;89.04785;941.0097;;;;
2021/11/16 09:37:18;;;;;;;4.8;4;;;;;;;6.24;89.41504;940.9748;;;;
2021/11/16 09:39:44;;;;;;;4.6;3.6;;;;;;;6.25;89.47559;940.9529;;;;
2021/11/16 09:42:09;;;;;;;4.1;3.4;;;;;;;6.22;89.32324;940.9127;;;;
2021/11/16 09:44:33;;;;;;;5.1;3.8;;;;;;;6.32;89.14941;940.9114;;;;
2021/11/16 09:46:59;;;;;;;4.4;3.7;;;;;;;6.21;89.28711;940.9108;;;;
2021/11/16 09:49:24;;;;;;;4.6;3.5;;;;;;;5.96;90.84766;940.9238;;;;
2021/11/16 09:51:51;;;;;;;5.5;3.9;;;;;;;5.86;91.67578;940.873;;;;
2021/11/16 09:54:15;;;;;;;5.8;4.2;;;;;;;5.9;91.43555;940.866;;;;
2021/11/16 09:56:41;;;;;;;6.1;4.4;;;;;;;5.87;92.44629;940.8898;;;;
2021/11/16 10:00:37;;;;;;;4.7;4;;;;;;;5.97;91.98145;940.7835;;;;
2021/11/16 10:03:02;;;;;;;5.9;4.6;;;;;;;6.01;91.89844;940.9525;;;;
2021/11/16 10:05:27;;;;;;;5.6;4.3;;;;;;;6.01;91.5166;940.8957;;;;
2021/11/16 10:07:52;;;;;;;5.4;4.1;;;;;;;5.93;91.59863;940.8572;;;;
2021/11/16 10:10:17;;;;;;;4.7;3.9;;;;;;;6.03;91.25879;940.9562;;;;
2021/11/16 10:12:42;;;;;;;5.5;4.1;;;;;;;6.25;90.62891;940.9419;;;;
2021/11/16 10:15:07;;;;;;;5.8;4.3;;;;;;;6.2;91.41992;940.9362;;;;
2021/11/16 10:17:37;;;;;;;4.9;3.9;;;;;;;6.18;91.47266;940.9348;;;;
2021/11/16 10:20:02;;;;;;;5.8;4.1;;;;;;;6.23;90.80371;940.901;;;;
2021/11/16 10:22:29;;;;;;;7.3;4.9;;;;;;;6.11;90.64355;940.8725;;;;
2021/11/16 10:24:52;;;;;;;6.6;4.8;;;;;;;6.02;90.9873;940.8825;;;;
2021/11/16 10:27:17;;;;;;;7.7;5.5;;;;;;;6.04;91.16113;940.8389;;;;
2021/11/16 10:29:43;;;;;;;7.3;5.5;;;;;;;5.94;91.80664;940.7826;;;;
2021/11/16 10:32:09;;;;;;;7.4;5.7;;;;;;;5.98;92.32227;940.8044;;;;
2021/11/16 10:34:34;;;;;;;9.5;6.1;;;;;;;6.11;91.7168;940.8157;;;;
2021/11/16 10:36:59;;;;;;;6.6;5.1;;;;;;;6.02;91.37012;940.7242;;;;
2021/11/16 10:39:26;;;;;;;8.1;5.5;;;;;;;5.62;93.48633;940.7745;;;;
2021/11/16 10:41:53;;;;;;;8.4;6;;;;;;;5.6;93.96777;940.7308;;;;
2021/11/16 10:44:21;;;;;;;10;7.2;;;;;;;5.64;93.75;940.7774;;;;
2021/11/16 10:46:43;;;;;;;10;6.7;;;;;;;5.64;94.06543;940.7379;;;;
2021/11/16 10:49:11;;;;;;;8.1;5.8;;;;;;;5.55;94.20215;940.7661;;;;
2021/11/16 10:51:35;;;;;;;8.2;5.7;;;;;;;5.66;93.97949;940.7162;;;;
2021/11/16 10:54:00;;;;;;;9.1;6.6;;;;;;;5.67;94.55762;940.7094;;;;
2021/11/16 10:56:25;;;;;;;10.1;6.4;;;;;;;5.8;93.95508;940.6892;;;;
2021/11/16 10:58:50;;;;;;;10;6.6;;;;;;;5.75;93.79785;940.653;;;;
2021/11/16 11:01:35;;;;;;;11.9;8.1;;;;;;;5.75;93.67188;940.7017;;;;
2021/11/16 11:03:55;;;;;;;11;6.7;;;;;;;6.03;93.82324;940.6615;;;;
2021/11/16 11:06:22;;;;;;;9.5;7.3;;;;;;;6.03;91.92578;940.6085;;;;
2021/11/16 11:08:47;;;;;;;12.3;7.5;;;;;;;6.1;92.08789;940.655;;;;
2021/11/16 11:11:13;;;;;;;14.4;7.4;;;;;;;6.09;91.83887;940.5883;;;;
2021/11/16 11:13:40;;;;;;;10.1;6.8;;;;;;;6.1;92.00879;940.5617;;;;
2021/11/16 11:16:06;;;;;;;10.2;6.7;;;;;;;6.2;91.46484;940.4595;;;;
2021/11/16 11:18:32;;;;;;;10.1;6.4;;;;;;;6.44;90.73633;940.4464;;;;
2021/11/16 11:20:58;;;;;;;7.9;5.5;;;;;;;6.41;89.92578;940.4202;;;;
2021/11/16 11:23:25;;;;;;;9.1;5.7;;;;;;;6.35;90.26563;940.4324;;;;
2021/11/16 11:25:51;;;;;;;7.7;5.5;;;;;;;6.2;90.39063;940.3741;;;;
2021/11/16 11:28:30;;;;;;;8.5;6;;;;;;;6.13;91.49512;940.361;;;;
2021/11/16 11:30:44;;;;;;;9.6;6;;;;;;;6.1;90.96875;940.3663;;;;
2021/11/16 11:33:09;;;;;;;10.2;6.2;;;;;;;6.02;91.23438;940.3569;;;;
2021/11/16 11:35:36;;;;;;;9.8;7.2;;;;;;;5.87;91.67773;940.4158;;;;
2021/11/16 11:38:03;;;;;;;8.4;5.4;;;;;;;5.78;92.33594;940.3986;;;;
2021/11/16 11:40:26;;;;;;;7.6;5.3;;;;;;;5.89;92.35938;940.4203;;;;
2021/11/16 11:42:52;;;;;;;7.8;5.3;;;;;;;5.98;91.9707;940.435;;;;
2021/11/16 11:45:21;;;;;;;5.9;5;;;;;;;5.97;91.50684;940.4911;;;;
2021/11/16 11:47:44;;;;;;;6.1;4.6;;;;;;;5.86;92.06934;940.3656;;;;
2021/11/16 11:50:09;;;;;;;6.5;4.6;;;;;;;5.86;92.94043;940.4266;;;;
2021/11/16 11:52:34;;;;;;;7.3;4.2;;;;;;;5.84;92.47168;940.4835;;;;
2021/11/16 11:54:59;;;;;;;7.2;5;;;;;;;5.87;92.35547;940.4504;;;;
2021/11/16 11:57:24;;;;;;;5.7;4.5;;;;;;;6.01;91.84082;940.4233;;;;
2021/11/16 11:59:52;;;;;;;6.3;4.6;;;;;;;5.74;92.28125;940.4407;;;;
2021/11/16 12:02:17;;;;;;;7;5.1;;;;;;;5.92;92.36523;940.4483;;;;
2021/11/16 12:04:44;;;;;;;7.2;5.2;;;;;;;6.1;91.77148;940.45;;;;
2021/11/16 12:07:09;;;;;;;7;4.9;;;;;;;5.99;90.97949;940.4213;;;;
2021/11/16 12:09:36;;;;;;;6.4;5;;;;;;;5.98;91.27148;940.4083;;;;
2021/11/16 12:12:21;;;;;;;7;5;;;;;;;5.96;90.8252;940.3492;;;;
2021/11/16 12:14:46;;;;;;;6.4;4.7;;;;;;;5.85;91.58203;940.337;;;;
2021/11/16 12:17:14;;;;;;;6.7;5.1;;;;;;;5.71;91.74219;940.2667;;;;
2021/11/16 12:19:39;;;;;;;5.7;4.3;;;;;;;5.83;91.26172;940.432;;;;
2021/11/16 12:22:04;;;;;;;6.6;4.3;;;;;;;5.88;90.48242;940.3894;;;;
2021/11/16 12:24:29;;;;;;;5.9;4.3;;;;;;;5.98;90.69531;940.3688;;;;
2021/11/16 12:26:56;;;;;;;5;3.9;;;;;;;6.16;90.04395;940.2971;;;;
2021/11/16 12:29:21;;;;;;;4.9;3.8;;;;;;;6.3;89.16797;940.3225;;;;
2021/11/16 12:31:47;;;;;;;5.4;3.7;;;;;;;6.43;88.86914;940.3257;;;;
2021/11/16 12:34:11;;;;;;;4.5;3.5;;;;;;;6.57;87.61816;940.3019;;;;
2021/11/16 12:36:36;;;;;;;4.9;3.8;;;;;;;6.66;86.81055;940.2422;;;;
2021/11/16 12:39:17;;;;;;;5.2;3.9;;;;;;;6.52;87.05469;940.2983;;;;
2021/11/16 12:41:43;;;;;;;5.1;3.9;;;;;;;6.59;87.55469;940.2946;;;;
2021/11/16 12:44:08;;;;;;;6;4;;;;;;;6.41;87.29102;940.3354;;;;
2021/11/16 12:46:36;;;;;;;5;3.9;;;;;;;6.18;88.44336;940.2753;;;;
2021/11/16 12:48:58;;;;;;;5.4;4;;;;;;;6.2;88.51465;940.2419;;;;
2021/11/16 12:51:23;;;;;;;5.5;4.4;;;;;;;6.19;88.43555;940.2315;;;;
2021/11/16 12:53:49;;;;;;;6;4.9;;;;;;;6.33;88.50684;940.1827;;;;
2021/11/16 12:56:14;;;;;;;5.7;4.5;;;;;;;6.43;88.3916;940.2901;;;;
2021/11/16 12:58:40;;;;;;;5.5;4.5;;;;;;;6.45;87.77539;940.3058;;;;
2021/11/16 13:01:10;;;;;;;7.1;5.1;;;;;;;6.25;88.82031;940.2642;;;;
2021/11/16 13:03:36;;;;;;;5.6;4.3;;;;;;;6.46;87.87891;940.2561;;;;
2021/11/16 13:06:04;;;;;;;5.3;4.2;;;;;;;6.54;86.91113;940.2474;;;;
2021/11/16 13:08:29;;;;;;;5.9;4;;;;;;;6.53;86.64941;940.1956;;;;
2021/11/16 13:10:54;;;;;;;6.1;4.5;;;;;;;6.53;86.54785;940.1228;;;;
2021/11/16 13:13:21;;;;;;;5.1;4.1;;;;;;;6.48;86.31055;940.1879;;;;
2021/11/16 13:16:02;;;;;;;5.5;4.2;;;;;;;6.42;87.14551;940.1711;;;;
2021/11/16 13:18:32;;;;;;;5.7;4.4;;;;;;;6.47;86.99707;940.1741;;;;
2021/11/16 13:21:08;;;;;;;6.3;4.5;;;;;;;6.5;87.79785;940.183;;;;
2021/11/16 13:23:37;;;;;;;6.5;4.7;;;;;;;6.55;87.80664;940.1069;;;;
2021/11/16 13:26:03;;;;;;;5.8;4.3;;;;;;;6.56;87.54883;940.1465;;;;
2021/11/16 13:28:31;;;;;;;5.3;3.9;;;;;;;6.61;87.46875;940.1016;;;;
2021/11/16 13:30:52;;;;;;;5.6;4.3;;;;;;;6.72;87.01465;940.0579;;;;
2021/11/16 13:33:17;;;;;;;6.1;4.5;;;;;;;6.48;86.94434;940.048;;;;
2021/11/16 13:35:46;;;;;;;6.3;4.7;;;;;;;6.47;88.05273;940.028;;;;
2021/11/16 13:38:11;;;;;;;5;4;;;;;;;6.57;86.64551;939.9041;;;;
2021/11/16 13:40:47;;;;;;;4.7;3.7;;;;;;;6.52;86.9873;939.9842;;;;
2021/11/16 13:43:08;;;;;;;4.9;3.8;;;;;;;6.58;87.29395;940.0452;;;;
2021/11/16 13:45:33;;;;;;;4.5;3.8;;;;;;;6.65;87.06934;940.0046;;;;
2021/11/16 13:47:59;;;;;;;6.2;4.2;;;;;;;6.77;85.8252;940.0016;;;;
2021/11/16 13:50:24;;;;;;;5.2;4;;;;;;;6.58;85.92285;940;;;;
2021/11/16 13:52:49;;;;;;;6.7;4;;;;;;;6.57;86.64551;940.0662;;;;
2021/11/16 13:55:17;;;;;;;5.2;4;;;;;;;6.6;86.67578;939.984;;;;
2021/11/16 13:57:42;;;;;;;5.1;3.9;;;;;;;6.38;87.72656;940.0103;;;;
2021/11/16 14:00:13;;;;;;;6;4;;;;;;;6.38;87.97559;940.0006;;;;
2021/11/16 14:02:37;;;;;;;5.8;4.4;;;;;;;6.49;86.92285;940.0584;;;;
2021/11/16 14:05:03;;;;;;;4.5;3.7;;;;;;;6.37;87.3291;940.0597;;;;
2021/11/16 14:07:28;;;;;;;7.4;4.8;;;;;;;6.48;87.66797;940.0195;;;;
2021/11/16 14:09:53;;;;;;;6.5;4.4;;;;;;;6.45;87.0293;940.0575;;;;
2021/11/16 14:12:18;;;;;;;7.3;4.5;;;;;;;6.53;87.46387;940.0486;;;;
2021/11/16 14:14:46;;;;;;;5.9;4.3;;;;;;;6.48;87.69043;940.0162;;;;
2021/11/16 14:17:16;;;;;;;5.4;4.3;;;;;;;6.45;88.1709;939.9958;;;;
2021/11/16 14:19:45;;;;;;;5.1;3.8;;;;;;;6.51;87.05078;939.976;;;;
2021/11/16 14:22:12;;;;;;;5;4;;;;;;;6.51;86.71191;939.9609;;;;
2021/11/16 14:24:37;;;;;;;5.2;3.8;;;;;;;6.53;87.01172;939.9244;;;;
2021/11/16 14:27:03;;;;;;;5.4;3.8;;;;;;;6.46;86.19336;939.8709;;;;
2021/11/16 14:29:30;;;;;;;5.6;4.2;;;;;;;6.44;87.26465;939.8317;;;;
2021/11/16 14:31:56;;;;;;;4.8;3.8;;;;;;;6.56;86.99414;939.812;;;;
2021/11/16 14:34:21;;;;;;;5.2;4.1;;;;;;;6.52;86.70215;939.8204;;;;
2021/11/16 14:36:47;;;;;;;5.7;4.1;;;;;;;6.55;87.08301;939.8212;;;;
2021/11/16 14:39:13;;;;;;;5;4;;;;;;;6.6;86.59473;939.7939;;;;
2021/11/16 14:41:38;;;;;;;4.9;4;;;;;;;6.58;85.59473;939.7745;;;;
2021/11/16 14:44:04;;;;;;;10.9;4.8;;;;;;;6.16;88.05371;939.8052;;;;
2021/11/16 14:46:29;;;;;;;10.2;4.4;;;;;;;5.81;89.8457;939.7162;;;;
2021/11/16 14:48:57;;;;;;;8.2;4.3;;;;;;;5.94;90.34863;939.79;;;;
2021/11/16 14:51:29;;;;;;;5.1;3.8;;;;;;;5.96;89.26855;939.7321;;;;
2021/11/16 14:53:47;;;;;;;4.3;3.6;;;;;;;5.98;89.07813;939.7673;;;;
2021/11/16 14:56:13;;;;;;;5.2;4.3;;;;;;;6.03;89.64258;939.6956;;;;
2021/11/16 14:58:38;;;;;;;5;3.8;;;;;;;6.13;89.68652;939.7364;;;;
2021/11/16 15:01:03;;;;;;;5.7;4.1;;;;;;;6.22;89.15137;939.747;;;;
2021/11/16 15:03:30;;;;;;;5;4.1;;;;;;;6.23;89.04004;939.7719;;;;
2021/11/16 15:05:55;;;;;;;5.5;4.2;;;;;;;6.26;88.38086;939.7364;;;;
2021/11/16 15:08:24;;;;;;;6;4.4;;;;;;;6.27;88.17969;939.7319;;;;
2021/11/16 15:10:45;;;;;;;6.5;5.1;;;;;;;6.23;88.48633;939.7268;;;;
2021/11/16 15:13:10;;;;;;;5.3;4.5;;;;;;;6.26;88.76367;939.7316;;;;
2021/11/16 15:15:45;;;;;;;4.5;3.8;;;;;;;6.23;89.27734;939.6722;;;;
2021/11/16 15:18:12;;;;;;;5.2;3.7;;;;;;;6.2;89.18164;939.6696;;;;
2021/11/16 15:20:41;;;;;;;5.7;3.7;;;;;;;6.34;88.55371;939.687;;;;
2021/11/16 15:23:09;;;;;;;5.5;3.7;;;;;;;6.38;88.04297;939.6542;;;;
2021/11/16 15:25:29;;;;;;;4.7;3.9;;;;;;;6.29;88.90625;939.5909;;;;
2021/11/16 15:27:55;;;;;;;6.6;3.7;;;;;;;6.34;88.53125;939.691;;;;
2021/11/16 15:30:20;;;;;;;4.7;3.6;;;;;;;6.33;87.98828;939.7336;;;;
2021/11/16 15:32:44;;;;;;;4.8;3.6;;;;;;;6.23;88;939.7157;;;;
2021/11/16 15:35:10;;;;;;;6.1;4.2;;;;;;;6.22;88.41699;939.7034;;;;
2021/11/16 15:37:35;;;;;;;5.7;4.4;;;;;;;6.12;88.57715;939.7107;;;;
2021/11/16 15:40:01;;;;;;;5.7;4.4;;;;;;;6.14;88.71875;939.7114;;;;
2021/11/16 15:42:27;;;;;;;5.5;4.5;;;;;;;6.24;88.10352;939.7863;;;;
2021/11/16 15:45:00;;;;;;;5;4;;;;;;;6.16;88.41699;939.693;;;;
2021/11/16 15:47:34;;;;;;;6.5;4.6;;;;;;;6.17;88.30566;939.7525;;;;
2021/11/16 15:49:53;;;;;;;5.3;4.5;;;;;;;6.16;88.59766;939.7263;;;;
2021/11/16 15:52:21;;;;;;;6.2;4.6;;;;;;;6.15;88.44922;939.7542;;;;